sensor_id;sensor_type;location;lat;lon;timestamp;noise_LAeq;noise_LA_min;noise_LA_max;noise_LA01;noise_LA95
67298;Laerm;65443;51.436;5.978;2023-06-26T00:00:04;55.79;29.64;72.01;;
67298;Laerm;65443;51.436;5.978;2023-06-26T00:00:15;56.50;30.05;72.07;;
67298;Laerm;65443;51.436;5.978;2023-06-26T00:00:25;31.35;29.36;34.41;;
67298;Laerm;65443;51.436;5.978;2023-06-26T00:00:36;31.53;29.50;35.38;;
67298;Laerm;65443;51.436;5.978;2023-06-26T00:00:47;31.80;29.17;37.04;;
67298;Laerm;65443;51.436;5.978;2023-06-26T00:00:57;31.33;29.60;37.41;;
67298;Laerm;65443;51.436;5.978;2023-06-26T00:01:08;31.35;29.46;34.84;;
67298;Laerm;65443;51.436;5.978;2023-06-26T00:01:18;31.50;29.62;33.81;;
67298;Laerm;65443;51.436;5.978;2023-06-26T00:01:31;31.31;29.44;33.55;;
67298;Laerm;65443;51.436;5.978;2023-06-26T00:01:42;32.01;29.64;35.88;;
67298;Laerm;65443;51.436;5.978;2023-06-26T00:01:52;32.02;30.09;34.95;;
67298;Laerm;65443;51.436;5.978;2023-06-26T00:02:03;32.28;30.41;36.23;;
67298;Laerm;65443;51.436;5.978;2023-06-26T00:02:13;33.06;30.48;37.71;;
67298;Laerm;65443;51.436;5.978;2023-06-26T00:02:23;32.61;30.21;36.25;;
67298;Laerm;65443;51.436;5.978;2023-06-26T00:02:34;33.10;30.82;36.74;;
67298;Laerm;65443;51.436;5.978;2023-06-26T00:02:44;35.02;31.95;38.63;;
67298;Laerm;65443;51.436;5.978;2023-06-26T00:02:54;38.50;34.93;44.10;;
67298;Laerm;65443;51.436;5.978;2023-06-26T00:03:05;59.32;40.40;71.81;;
67298;Laerm;65443;51.436;5.978;2023-06-26T00:03:15;54.58;35.46;64.09;;
67298;Laerm;65443;51.436;5.978;2023-06-26T00:03:25;33.81;31.61;36.89;;
67298;Laerm;65443;51.436;5.978;2023-06-26T00:03:36;31.33;29.48;36.70;;
67298;Laerm;65443;51.436;5.978;2023-06-26T00:03:46;30.88;29.61;32.37;;
67298;Laerm;65443;51.436;5.978;2023-06-26T00:03:57;30.61;29.38;31.89;;
67298;Laerm;65443;51.436;5.978;2023-06-26T00:04:07;30.36;29.02;31.56;;
67298;Laerm;65443;51.436;5.978;2023-06-26T00:04:23;30.18;28.93;31.66;;
67298;Laerm;65443;51.436;5.978;2023-06-26T00:04:33;30.52;29.02;32.53;;
67298;Laerm;65443;51.436;5.978;2023-06-26T00:04:45;30.45;29.23;31.80;;
67298;Laerm;65443;51.436;5.978;2023-06-26T00:04:56;30.54;29.48;34.90;;
67298;Laerm;65443;51.436;5.978;2023-06-26T00:05:06;30.17;28.69;31.36;;
67298;Laerm;65443;51.436;5.978;2023-06-26T00:05:16;30.52;29.26;32.20;;
67298;Laerm;65443;51.436;5.978;2023-06-26T00:05:27;30.81;29.53;32.46;;
67298;Laerm;65443;51.436;5.978;2023-06-26T00:05:38;30.60;29.24;31.79;;
67298;Laerm;65443;51.436;5.978;2023-06-26T00:05:48;30.72;29.37;32.27;;
67298;Laerm;65443;51.436;5.978;2023-06-26T00:05:58;30.77;29.28;32.03;;
67298;Laerm;65443;51.436;5.978;2023-06-26T00:06:10;30.46;29.11;32.68;;
67298;Laerm;65443;51.436;5.978;2023-06-26T00:06:20;30.53;29.42;31.71;;
67298;Laerm;65443;51.436;5.978;2023-06-26T00:06:34;30.58;29.39;32.32;;
67298;Laerm;65443;51.436;5.978;2023-06-26T00:06:44;30.98;29.68;33.02;;
67298;Laerm;65443;51.436;5.978;2023-06-26T00:06:54;30.69;29.41;32.54;;
67298;Laerm;65443;51.436;5.978;2023-06-26T00:07:05;30.34;28.92;31.95;;
67298;Laerm;65443;51.436;5.978;2023-06-26T00:07:15;30.76;29.26;33.86;;
67298;Laerm;65443;51.436;5.978;2023-06-26T00:07:25;30.83;29.41;35.21;;
67298;Laerm;65443;51.436;5.978;2023-06-26T00:07:36;31.73;29.40;35.24;;
67298;Laerm;65443;51.436;5.978;2023-06-26T00:07:46;32.66;29.94;36.32;;
67298;Laerm;65443;51.436;5.978;2023-06-26T00:07:56;32.63;29.72;37.00;;
67298;Laerm;65443;51.436;5.978;2023-06-26T00:08:10;30.82;29.12;34.17;;
67298;Laerm;65443;51.436;5.978;2023-06-26T00:08:20;30.91;29.34;34.39;;
67298;Laerm;65443;51.436;5.978;2023-06-26T00:08:31;31.62;29.17;42.96;;
67298;Laerm;65443;51.436;5.978;2023-06-26T00:08:41;31.18;29.28;34.57;;
67298;Laerm;65443;51.436;5.978;2023-06-26T00:08:52;31.28;29.83;32.85;;
67298;Laerm;65443;51.436;5.978;2023-06-26T00:09:03;31.49;29.57;33.99;;
67298;Laerm;65443;51.436;5.978;2023-06-26T00:09:13;30.58;29.04;31.83;;
67298;Laerm;65443;51.436;5.978;2023-06-26T00:09:23;30.66;29.06;35.09;;
67298;Laerm;65443;51.436;5.978;2023-06-26T00:09:34;31.42;29.12;37.21;;
67298;Laerm;65443;51.436;5.978;2023-06-26T00:09:44;32.60;29.41;39.76;;
67298;Laerm;65443;51.436;5.978;2023-06-26T00:09:54;31.54;29.50;35.64;;
67298;Laerm;65443;51.436;5.978;2023-06-26T00:10:05;32.41;29.75;37.17;;
67298;Laerm;65443;51.436;5.978;2023-06-26T00:10:16;30.78;29.36;33.46;;
67298;Laerm;65443;51.436;5.978;2023-06-26T00:10:27;30.24;28.95;31.54;;
67298;Laerm;65443;51.436;5.978;2023-06-26T00:10:37;30.81;29.28;32.58;;
67298;Laerm;65443;51.436;5.978;2023-06-26T00:10:47;30.63;29.37;31.80;;
67298;Laerm;65443;51.436;5.978;2023-06-26T00:11:00;30.77;29.20;32.95;;
67298;Laerm;65443;51.436;5.978;2023-06-26T00:11:10;31.72;29.79;36.33;;
67298;Laerm;65443;51.436;5.978;2023-06-26T00:11:21;33.18;29.45;39.63;;
67298;Laerm;65443;51.436;5.978;2023-06-26T00:11:31;32.24;29.53;40.85;;
67298;Laerm;65443;51.436;5.978;2023-06-26T00:11:43;30.99;29.10;34.72;;
67298;Laerm;65443;51.436;5.978;2023-06-26T00:11:53;31.49;29.18;37.78;;
67298;Laerm;65443;51.436;5.978;2023-06-26T00:12:04;32.31;29.57;36.09;;
67298;Laerm;65443;51.436;5.978;2023-06-26T00:12:14;32.80;29.88;36.67;;
67298;Laerm;65443;51.436;5.978;2023-06-26T00:12:24;33.12;30.27;39.49;;
67298;Laerm;65443;51.436;5.978;2023-06-26T00:12:35;32.33;29.41;39.70;;
67298;Laerm;65443;51.436;5.978;2023-06-26T00:12:45;31.62;29.78;34.90;;
67298;Laerm;65443;51.436;5.978;2023-06-26T00:12:56;31.46;29.68;34.94;;
67298;Laerm;65443;51.436;5.978;2023-06-26T00:13:06;31.38;29.64;34.95;;
67298;Laerm;65443;51.436;5.978;2023-06-26T00:13:16;31.28;28.96;34.96;;
67298;Laerm;65443;51.436;5.978;2023-06-26T00:13:26;30.57;29.06;32.61;;
67298;Laerm;65443;51.436;5.978;2023-06-26T00:13:37;30.39;29.15;31.86;;
67298;Laerm;65443;51.436;5.978;2023-06-26T00:13:47;30.85;29.20;32.24;;
67298;Laerm;65443;51.436;5.978;2023-06-26T00:13:57;30.51;29.26;32.74;;
67298;Laerm;65443;51.436;5.978;2023-06-26T00:14:08;31.09;29.45;32.71;;
67298;Laerm;65443;51.436;5.978;2023-06-26T00:14:18;30.89;29.42;32.53;;
67298;Laerm;65443;51.436;5.978;2023-06-26T00:14:30;32.45;30.02;49.34;;
67298;Laerm;65443;51.436;5.978;2023-06-26T00:14:41;31.31;29.48;33.74;;
67298;Laerm;65443;51.436;5.978;2023-06-26T00:14:51;31.50;29.55;34.71;;
67298;Laerm;65443;51.436;5.978;2023-06-26T00:15:02;31.97;29.36;35.15;;
67298;Laerm;65443;51.436;5.978;2023-06-26T00:15:12;32.66;29.80;35.62;;
67298;Laerm;65443;51.436;5.978;2023-06-26T00:15:23;32.02;29.83;35.62;;
67298;Laerm;65443;51.436;5.978;2023-06-26T00:15:34;33.04;29.71;41.85;;
67298;Laerm;65443;51.436;5.978;2023-06-26T00:15:44;31.62;29.21;36.01;;
67298;Laerm;65443;51.436;5.978;2023-06-26T00:15:54;31.65;29.61;36.30;;
67298;Laerm;65443;51.436;5.978;2023-06-26T00:16:05;32.00;29.21;38.68;;
67298;Laerm;65443;51.436;5.978;2023-06-26T00:16:15;32.64;29.96;36.25;;
67298;Laerm;65443;51.436;5.978;2023-06-26T00:16:26;31.91;29.95;36.81;;
67298;Laerm;65443;51.436;5.978;2023-06-26T00:16:36;31.85;29.74;34.41;;
67298;Laerm;65443;51.436;5.978;2023-06-26T00:16:47;31.13;29.62;35.02;;
67298;Laerm;65443;51.436;5.978;2023-06-26T00:16:59;30.54;29.13;32.38;;
67298;Laerm;65443;51.436;5.978;2023-06-26T00:17:09;31.03;29.52;34.08;;
67298;Laerm;65443;51.436;5.978;2023-06-26T00:17:21;30.54;29.07;32.46;;
67298;Laerm;65443;51.436;5.978;2023-06-26T00:17:31;30.84;29.56;32.97;;
67298;Laerm;65443;51.436;5.978;2023-06-26T00:17:46;31.30;29.29;36.79;;
67298;Laerm;65443;51.436;5.978;2023-06-26T00:17:57;31.94;28.99;38.70;;
67298;Laerm;65443;51.436;5.978;2023-06-26T00:18:08;32.84;28.81;40.03;;
67298;Laerm;65443;51.436;5.978;2023-06-26T00:18:18;30.74;28.91;37.03;;
67298;Laerm;65443;51.436;5.978;2023-06-26T00:18:28;30.39;28.57;32.56;;
67298;Laerm;65443;51.436;5.978;2023-06-26T00:18:39;31.10;29.43;34.03;;
67298;Laerm;65443;51.436;5.978;2023-06-26T00:18:49;33.44;29.49;39.29;;
67298;Laerm;65443;51.436;5.978;2023-06-26T00:18:59;34.53;29.05;40.69;;
67298;Laerm;65443;51.436;5.978;2023-06-26T00:19:09;33.57;29.29;39.56;;
67298;Laerm;65443;51.436;5.978;2023-06-26T00:19:20;33.11;29.50;40.70;;
67298;Laerm;65443;51.436;5.978;2023-06-26T00:19:30;31.79;28.96;36.27;;
67298;Laerm;65443;51.436;5.978;2023-06-26T00:19:40;32.91;28.68;37.58;;
67298;Laerm;65443;51.436;5.978;2023-06-26T00:19:51;31.49;29.40;37.20;;
67298;Laerm;65443;51.436;5.978;2023-06-26T00:20:01;31.19;28.90;36.75;;
67298;Laerm;65443;51.436;5.978;2023-06-26T00:20:15;30.24;28.82;32.79;;
67298;Laerm;65443;51.436;5.978;2023-06-26T00:20:26;30.18;28.69;33.71;;
67298;Laerm;65443;51.436;5.978;2023-06-26T00:20:36;30.01;29.03;31.11;;
67298;Laerm;65443;51.436;5.978;2023-06-26T00:20:46;29.87;28.81;32.64;;
67298;Laerm;65443;51.436;5.978;2023-06-26T00:20:57;30.15;28.83;32.76;;
67298;Laerm;65443;51.436;5.978;2023-06-26T00:21:07;30.86;29.33;33.69;;
67298;Laerm;65443;51.436;5.978;2023-06-26T00:21:17;32.67;29.48;43.68;;
67298;Laerm;65443;51.436;5.978;2023-06-26T00:21:29;37.77;29.63;59.56;;
67298;Laerm;65443;51.436;5.978;2023-06-26T00:21:39;33.06;29.61;48.74;;
67298;Laerm;65443;51.436;5.978;2023-06-26T00:21:49;32.17;29.79;36.43;;
67298;Laerm;65443;51.436;5.978;2023-06-26T00:21:59;31.37;29.11;36.93;;
67298;Laerm;65443;51.436;5.978;2023-06-26T00:22:10;31.58;29.52;35.52;;
67298;Laerm;65443;51.436;5.978;2023-06-26T00:22:20;32.50;29.43;35.81;;
67298;Laerm;65443;51.436;5.978;2023-06-26T00:22:31;31.85;29.60;35.75;;
67298;Laerm;65443;51.436;5.978;2023-06-26T00:22:41;32.18;30.07;35.76;;
67298;Laerm;65443;51.436;5.978;2023-06-26T00:22:51;32.07;29.45;36.70;;
67298;Laerm;65443;51.436;5.978;2023-06-26T00:23:03;31.68;29.16;37.38;;
67298;Laerm;65443;51.436;5.978;2023-06-26T00:23:17;31.62;29.29;35.59;;
67298;Laerm;65443;51.436;5.978;2023-06-26T00:23:28;32.31;30.01;35.34;;
67298;Laerm;65443;51.436;5.978;2023-06-26T00:23:40;31.95;29.42;37.33;;
67298;Laerm;65443;51.436;5.978;2023-06-26T00:23:51;32.60;29.75;37.01;;
67298;Laerm;65443;51.436;5.978;2023-06-26T00:24:01;35.16;30.79;43.37;;
67298;Laerm;65443;51.436;5.978;2023-06-26T00:24:12;32.42;30.05;36.95;;
67298;Laerm;65443;51.436;5.978;2023-06-26T00:24:22;32.39;29.74;36.32;;
67298;Laerm;65443;51.436;5.978;2023-06-26T00:24:32;33.08;29.86;36.95;;
67298;Laerm;65443;51.436;5.978;2023-06-26T00:24:43;32.70;30.01;36.32;;
67298;Laerm;65443;51.436;5.978;2023-06-26T00:24:54;32.57;29.60;35.43;;
67298;Laerm;65443;51.436;5.978;2023-06-26T00:25:05;31.42;29.30;33.78;;
67298;Laerm;65443;51.436;5.978;2023-06-26T00:25:15;31.29;29.35;33.55;;
67298;Laerm;65443;51.436;5.978;2023-06-26T00:25:26;31.96;29.43;39.88;;
67298;Laerm;65443;51.436;5.978;2023-06-26T00:25:36;32.12;29.72;34.64;;
67298;Laerm;65443;51.436;5.978;2023-06-26T00:25:46;35.92;30.40;40.28;;
67298;Laerm;65443;51.436;5.978;2023-06-26T00:25:56;45.09;38.18;49.98;;
67298;Laerm;65443;51.436;5.978;2023-06-26T00:26:07;51.09;45.17;58.76;;
67298;Laerm;65443;51.436;5.978;2023-06-26T00:26:17;66.57;46.38;74.33;;
67298;Laerm;65443;51.436;5.978;2023-06-26T00:26:27;41.78;33.86;49.76;;
67298;Laerm;65443;51.436;5.978;2023-06-26T00:26:38;35.86;33.40;38.22;;
67298;Laerm;65443;51.436;5.978;2023-06-26T00:26:48;34.88;30.69;38.33;;
67298;Laerm;65443;51.436;5.978;2023-06-26T00:26:59;31.26;29.58;33.78;;
67298;Laerm;65443;51.436;5.978;2023-06-26T00:27:09;32.42;30.75;34.10;;
67298;Laerm;65443;51.436;5.978;2023-06-26T00:27:20;31.71;29.66;34.43;;
67298;Laerm;65443;51.436;5.978;2023-06-26T00:27:30;30.99;29.29;33.51;;
67298;Laerm;65443;51.436;5.978;2023-06-26T00:27:40;30.78;29.10;33.44;;
67298;Laerm;65443;51.436;5.978;2023-06-26T00:27:51;31.16;29.11;34.15;;
67298;Laerm;65443;51.436;5.978;2023-06-26T00:28:01;30.55;29.06;33.20;;
67298;Laerm;65443;51.436;5.978;2023-06-26T00:28:11;30.98;29.24;33.54;;
67298;Laerm;65443;51.436;5.978;2023-06-26T00:28:22;31.22;29.45;33.63;;
67298;Laerm;65443;51.436;5.978;2023-06-26T00:28:32;31.38;29.22;34.17;;
67298;Laerm;65443;51.436;5.978;2023-06-26T00:28:43;31.56;28.69;34.53;;
67298;Laerm;65443;51.436;5.978;2023-06-26T00:28:53;30.95;29.17;34.04;;
67298;Laerm;65443;51.436;5.978;2023-06-26T00:29:03;31.33;29.79;34.71;;
67298;Laerm;65443;51.436;5.978;2023-06-26T00:29:13;30.89;29.08;32.97;;
67298;Laerm;65443;51.436;5.978;2023-06-26T00:29:24;31.07;29.55;34.67;;
67298;Laerm;65443;51.436;5.978;2023-06-26T00:29:34;31.30;29.21;34.02;;
67298;Laerm;65443;51.436;5.978;2023-06-26T00:29:45;31.71;29.15;34.41;;
67298;Laerm;65443;51.436;5.978;2023-06-26T00:29:55;31.70;29.62;34.38;;
67298;Laerm;65443;51.436;5.978;2023-06-26T00:30:06;31.81;29.64;35.31;;
67298;Laerm;65443;51.436;5.978;2023-06-26T00:30:16;31.12;29.10;33.77;;
67298;Laerm;65443;51.436;5.978;2023-06-26T00:30:26;30.84;29.33;32.98;;
67298;Laerm;65443;51.436;5.978;2023-06-26T00:30:37;30.54;29.14;34.06;;
67298;Laerm;65443;51.436;5.978;2023-06-26T00:30:47;30.08;28.77;31.90;;
67298;Laerm;65443;51.436;5.978;2023-06-26T00:30:57;29.82;28.78;31.67;;
67298;Laerm;65443;51.436;5.978;2023-06-26T00:31:07;57.29;28.74;71.61;;
67298;Laerm;65443;51.436;5.978;2023-06-26T00:31:18;30.44;28.96;31.84;;
67298;Laerm;65443;51.436;5.978;2023-06-26T00:31:28;30.40;28.80;41.25;;
67298;Laerm;65443;51.436;5.978;2023-06-26T00:31:38;30.33;29.19;32.05;;
67298;Laerm;65443;51.436;5.978;2023-06-26T00:31:50;31.05;29.30;35.95;;
67298;Laerm;65443;51.436;5.978;2023-06-26T00:32:00;31.30;29.46;34.76;;
67298;Laerm;65443;51.436;5.978;2023-06-26T00:32:10;31.20;29.51;33.68;;
67298;Laerm;65443;51.436;5.978;2023-06-26T00:32:21;31.69;29.26;35.16;;
67298;Laerm;65443;51.436;5.978;2023-06-26T00:32:31;31.65;29.23;34.77;;
67298;Laerm;65443;51.436;5.978;2023-06-26T00:32:41;30.96;29.12;33.71;;
67298;Laerm;65443;51.436;5.978;2023-06-26T00:32:51;31.21;29.16;34.17;;
67298;Laerm;65443;51.436;5.978;2023-06-26T00:33:02;30.95;29.01;33.73;;
67298;Laerm;65443;51.436;5.978;2023-06-26T00:33:12;30.33;29.01;34.63;;
67298;Laerm;65443;51.436;5.978;2023-06-26T00:33:22;30.09;28.77;31.87;;
67298;Laerm;65443;51.436;5.978;2023-06-26T00:33:33;30.63;29.03;33.17;;
67298;Laerm;65443;51.436;5.978;2023-06-26T00:33:43;32.37;29.45;46.45;;
67298;Laerm;65443;51.436;5.978;2023-06-26T00:33:53;31.82;29.57;42.13;;
67298;Laerm;65443;51.436;5.978;2023-06-26T00:34:03;30.83;29.22;33.23;;
67298;Laerm;65443;51.436;5.978;2023-06-26T00:34:14;30.67;29.12;32.39;;
67298;Laerm;65443;51.436;5.978;2023-06-26T00:34:25;30.49;28.82;42.89;;
67298;Laerm;65443;51.436;5.978;2023-06-26T00:34:35;29.99;29.00;31.48;;
67298;Laerm;65443;51.436;5.978;2023-06-26T00:34:46;30.56;29.01;33.78;;
67298;Laerm;65443;51.436;5.978;2023-06-26T00:34:57;30.35;28.91;38.65;;
67298;Laerm;65443;51.436;5.978;2023-06-26T00:35:07;30.96;29.25;39.87;;
67298;Laerm;65443;51.436;5.978;2023-06-26T00:35:17;31.01;28.93;41.08;;
67298;Laerm;65443;51.436;5.978;2023-06-26T00:35:27;30.02;28.72;31.44;;
67298;Laerm;65443;51.436;5.978;2023-06-26T00:35:38;30.55;29.28;33.89;;
67298;Laerm;65443;51.436;5.978;2023-06-26T00:35:48;30.65;29.07;35.00;;
67298;Laerm;65443;51.436;5.978;2023-06-26T00:35:59;30.20;28.02;34.31;;
67298;Laerm;65443;51.436;5.978;2023-06-26T00:36:09;31.32;29.06;36.80;;
67298;Laerm;65443;51.436;5.978;2023-06-26T00:36:19;31.91;29.09;35.96;;
67298;Laerm;65443;51.436;5.978;2023-06-26T00:36:32;30.87;28.84;35.19;;
67298;Laerm;65443;51.436;5.978;2023-06-26T00:36:43;30.89;29.02;36.89;;
67298;Laerm;65443;51.436;5.978;2023-06-26T00:36:53;31.68;29.11;37.70;;
67298;Laerm;65443;51.436;5.978;2023-06-26T00:37:04;31.19;29.27;33.65;;
67298;Laerm;65443;51.436;5.978;2023-06-26T00:37:14;30.99;28.83;36.21;;
67298;Laerm;65443;51.436;5.978;2023-06-26T00:37:24;30.81;28.62;36.03;;
67298;Laerm;65443;51.436;5.978;2023-06-26T00:37:35;30.63;29.07;35.31;;
67298;Laerm;65443;51.436;5.978;2023-06-26T00:37:45;32.29;29.26;37.25;;
67298;Laerm;65443;51.436;5.978;2023-06-26T00:37:55;32.34;30.02;37.86;;
67298;Laerm;65443;51.436;5.978;2023-06-26T00:38:05;31.29;29.35;34.66;;
67298;Laerm;65443;51.436;5.978;2023-06-26T00:38:16;31.29;29.66;33.09;;
67298;Laerm;65443;51.436;5.978;2023-06-26T00:38:27;30.70;28.63;35.60;;
67298;Laerm;65443;51.436;5.978;2023-06-26T00:38:37;31.68;28.87;36.03;;
67298;Laerm;65443;51.436;5.978;2023-06-26T00:38:48;32.44;29.55;38.15;;
67298;Laerm;65443;51.436;5.978;2023-06-26T00:38:58;31.53;29.03;35.08;;
67298;Laerm;65443;51.436;5.978;2023-06-26T00:39:09;31.96;29.44;36.46;;
67298;Laerm;65443;51.436;5.978;2023-06-26T00:39:20;32.09;29.12;37.15;;
67298;Laerm;65443;51.436;5.978;2023-06-26T00:39:30;30.79;28.70;33.82;;
67298;Laerm;65443;51.436;5.978;2023-06-26T00:39:40;31.68;29.17;35.22;;
67298;Laerm;65443;51.436;5.978;2023-06-26T00:39:51;32.20;28.53;36.50;;
67298;Laerm;65443;51.436;5.978;2023-06-26T00:40:01;32.12;29.70;35.69;;
67298;Laerm;65443;51.436;5.978;2023-06-26T00:40:12;30.89;29.22;34.22;;
67298;Laerm;65443;51.436;5.978;2023-06-26T00:40:22;31.07;29.24;33.24;;
67298;Laerm;65443;51.436;5.978;2023-06-26T00:40:33;32.23;29.91;36.40;;
67298;Laerm;65443;51.436;5.978;2023-06-26T00:40:43;31.97;29.40;35.99;;
67298;Laerm;65443;51.436;5.978;2023-06-26T00:40:54;30.83;28.89;34.36;;
67298;Laerm;65443;51.436;5.978;2023-06-26T00:41:04;36.06;28.87;53.35;;
67298;Laerm;65443;51.436;5.978;2023-06-26T00:41:15;36.01;28.77;53.35;;
67298;Laerm;65443;51.436;5.978;2023-06-26T00:41:25;29.69;28.52;30.98;;
67298;Laerm;65443;51.436;5.978;2023-06-26T00:41:38;29.78;28.40;30.97;;
67298;Laerm;65443;51.436;5.978;2023-06-26T00:41:49;31.53;28.53;48.48;;
67298;Laerm;65443;51.436;5.978;2023-06-26T00:41:59;29.61;28.34;30.68;;
67298;Laerm;65443;51.436;5.978;2023-06-26T00:42:09;29.53;28.47;30.70;;
67298;Laerm;65443;51.436;5.978;2023-06-26T00:42:20;29.35;28.11;30.26;;
67298;Laerm;65443;51.436;5.978;2023-06-26T00:42:30;29.64;28.28;30.92;;
67298;Laerm;65443;51.436;5.978;2023-06-26T00:42:40;29.84;28.76;30.96;;
67298;Laerm;65443;51.436;5.978;2023-06-26T00:42:51;29.90;28.89;30.99;;
67298;Laerm;65443;51.436;5.978;2023-06-26T00:43:01;30.29;28.89;32.27;;
67298;Laerm;65443;51.436;5.978;2023-06-26T00:43:11;30.24;29.00;34.64;;
67298;Laerm;65443;51.436;5.978;2023-06-26T00:43:22;29.98;28.96;31.31;;
67298;Laerm;65443;51.436;5.978;2023-06-26T00:43:32;30.08;28.84;32.56;;
67298;Laerm;65443;51.436;5.978;2023-06-26T00:43:42;29.99;28.64;31.47;;
67298;Laerm;65443;51.436;5.978;2023-06-26T00:43:53;29.76;28.34;30.76;;
67298;Laerm;65443;51.436;5.978;2023-06-26T00:44:04;29.64;28.44;30.62;;
67298;Laerm;65443;51.436;5.978;2023-06-26T00:44:14;29.89;28.84;31.45;;
67298;Laerm;65443;51.436;5.978;2023-06-26T00:44:24;29.90;28.81;31.45;;
67298;Laerm;65443;51.436;5.978;2023-06-26T00:44:35;29.75;28.56;31.38;;
67298;Laerm;65443;51.436;5.978;2023-06-26T00:44:45;29.96;28.53;31.59;;
67298;Laerm;65443;51.436;5.978;2023-06-26T00:44:55;29.99;28.95;31.01;;
67298;Laerm;65443;51.436;5.978;2023-06-26T00:45:05;36.86;28.60;50.71;;
67298;Laerm;65443;51.436;5.978;2023-06-26T00:45:16;34.29;29.16;47.31;;
67298;Laerm;65443;51.436;5.978;2023-06-26T00:45:26;30.85;29.23;35.80;;
67298;Laerm;65443;51.436;5.978;2023-06-26T00:45:36;34.38;29.64;46.61;;
67298;Laerm;65443;51.436;5.978;2023-06-26T00:45:47;34.37;29.32;44.89;;
67298;Laerm;65443;51.436;5.978;2023-06-26T00:45:57;35.48;29.72;47.39;;
67298;Laerm;65443;51.436;5.978;2023-06-26T00:46:08;33.70;30.04;41.68;;
67298;Laerm;65443;51.436;5.978;2023-06-26T00:46:19;33.20;30.36;36.92;;
67298;Laerm;65443;51.436;5.978;2023-06-26T00:46:29;33.30;30.76;40.98;;
67298;Laerm;65443;51.436;5.978;2023-06-26T00:46:39;33.70;30.93;37.27;;
67298;Laerm;65443;51.436;5.978;2023-06-26T00:46:49;32.99;29.93;36.76;;
67298;Laerm;65443;51.436;5.978;2023-06-26T00:47:00;32.55;30.04;35.31;;
67298;Laerm;65443;51.436;5.978;2023-06-26T00:47:11;32.31;30.34;37.15;;
67298;Laerm;65443;51.436;5.978;2023-06-26T00:47:23;33.54;29.61;42.78;;
67298;Laerm;65443;51.436;5.978;2023-06-26T00:47:34;33.39;29.74;43.30;;
67298;Laerm;65443;51.436;5.978;2023-06-26T00:47:44;32.29;29.67;38.06;;
67298;Laerm;65443;51.436;5.978;2023-06-26T00:47:55;32.09;29.61;36.40;;
67298;Laerm;65443;51.436;5.978;2023-06-26T00:48:05;31.35;29.69;35.68;;
67298;Laerm;65443;51.436;5.978;2023-06-26T00:48:16;31.41;29.74;34.34;;
67298;Laerm;65443;51.436;5.978;2023-06-26T00:48:26;30.76;29.11;33.14;;
67298;Laerm;65443;51.436;5.978;2023-06-26T00:48:37;31.05;29.28;35.04;;
67298;Laerm;65443;51.436;5.978;2023-06-26T00:48:48;31.26;29.40;36.48;;
67298;Laerm;65443;51.436;5.978;2023-06-26T00:48:59;31.17;29.09;38.53;;
67298;Laerm;65443;51.436;5.978;2023-06-26T00:49:10;30.37;29.02;34.04;;
67298;Laerm;65443;51.436;5.978;2023-06-26T00:49:20;30.25;28.89;33.23;;
67298;Laerm;65443;51.436;5.978;2023-06-26T00:49:31;30.76;29.27;33.16;;
67298;Laerm;65443;51.436;5.978;2023-06-26T00:49:41;30.65;29.00;34.44;;
67298;Laerm;65443;51.436;5.978;2023-06-26T00:49:52;30.53;28.55;34.95;;
67298;Laerm;65443;51.436;5.978;2023-06-26T00:50:02;31.22;29.57;34.24;;
67298;Laerm;65443;51.436;5.978;2023-06-26T00:50:13;31.42;29.48;33.90;;
67298;Laerm;65443;51.436;5.978;2023-06-26T00:50:25;30.95;29.49;33.84;;
67298;Laerm;65443;51.436;5.978;2023-06-26T00:50:36;31.55;29.40;35.79;;
67298;Laerm;65443;51.436;5.978;2023-06-26T00:50:47;30.79;29.12;32.87;;
67298;Laerm;65443;51.436;5.978;2023-06-26T00:50:57;31.63;29.75;37.22;;
67298;Laerm;65443;51.436;5.978;2023-06-26T00:51:07;31.17;29.47;34.76;;
67298;Laerm;65443;51.436;5.978;2023-06-26T00:51:18;31.03;29.27;34.03;;
67298;Laerm;65443;51.436;5.978;2023-06-26T00:51:29;31.03;29.09;33.89;;
67298;Laerm;65443;51.436;5.978;2023-06-26T00:51:39;31.21;29.21;34.16;;
67298;Laerm;65443;51.436;5.978;2023-06-26T00:51:50;31.38;29.88;34.88;;
67298;Laerm;65443;51.436;5.978;2023-06-26T00:52:00;30.63;29.04;32.78;;
67298;Laerm;65443;51.436;5.978;2023-06-26T00:52:13;30.42;29.07;32.74;;
67298;Laerm;65443;51.436;5.978;2023-06-26T00:52:23;30.33;29.07;32.97;;
67298;Laerm;65443;51.436;5.978;2023-06-26T00:52:34;30.51;29.01;31.67;;
67298;Laerm;65443;51.436;5.978;2023-06-26T00:52:44;30.42;29.35;34.67;;
67298;Laerm;65443;51.436;5.978;2023-06-26T00:52:55;30.20;28.96;33.33;;
67298;Laerm;65443;51.436;5.978;2023-06-26T00:53:10;30.83;29.43;33.28;;
67298;Laerm;65443;51.436;5.978;2023-06-26T00:53:21;31.24;29.26;34.75;;
67298;Laerm;65443;51.436;5.978;2023-06-26T00:53:32;40.53;31.62;47.53;;
67298;Laerm;65443;51.436;5.978;2023-06-26T00:53:43;37.35;31.73;45.36;;
67298;Laerm;65443;51.436;5.978;2023-06-26T00:53:53;32.03;29.47;38.13;;
67298;Laerm;65443;51.436;5.978;2023-06-26T00:54:04;30.40;29.37;35.20;;
67298;Laerm;65443;51.436;5.978;2023-06-26T00:54:15;30.69;28.98;32.24;;
67298;Laerm;65443;51.436;5.978;2023-06-26T00:54:30;30.90;29.04;34.55;;
67298;Laerm;65443;51.436;5.978;2023-06-26T00:54:41;30.95;29.24;35.96;;
67298;Laerm;65443;51.436;5.978;2023-06-26T00:54:51;30.85;29.28;33.41;;
67298;Laerm;65443;51.436;5.978;2023-06-26T00:55:02;30.41;28.99;32.57;;
67298;Laerm;65443;51.436;5.978;2023-06-26T00:55:12;30.74;28.76;33.26;;
67298;Laerm;65443;51.436;5.978;2023-06-26T00:55:22;31.82;29.73;35.42;;
67298;Laerm;65443;51.436;5.978;2023-06-26T00:55:33;31.56;29.31;34.54;;
67298;Laerm;65443;51.436;5.978;2023-06-26T00:55:43;31.23;29.25;33.71;;
67298;Laerm;65443;51.436;5.978;2023-06-26T00:55:53;30.91;29.11;35.36;;
67298;Laerm;65443;51.436;5.978;2023-06-26T00:56:04;31.47;29.81;34.99;;
67298;Laerm;65443;51.436;5.978;2023-06-26T00:56:15;30.92;29.08;36.52;;
67298;Laerm;65443;51.436;5.978;2023-06-26T00:56:25;30.53;29.12;32.15;;
67298;Laerm;65443;51.436;5.978;2023-06-26T00:56:36;30.16;28.97;31.97;;
67298;Laerm;65443;51.436;5.978;2023-06-26T00:56:47;30.30;29.28;31.91;;
67298;Laerm;65443;51.436;5.978;2023-06-26T00:56:57;30.74;29.60;32.87;;
67298;Laerm;65443;51.436;5.978;2023-06-26T00:57:08;30.97;29.55;32.50;;
67298;Laerm;65443;51.436;5.978;2023-06-26T00:57:18;30.84;29.21;32.53;;
67298;Laerm;65443;51.436;5.978;2023-06-26T00:57:29;31.20;29.81;35.73;;
67298;Laerm;65443;51.436;5.978;2023-06-26T00:57:40;31.30;29.74;33.91;;
67298;Laerm;65443;51.436;5.978;2023-06-26T00:57:50;30.79;29.19;34.76;;
67298;Laerm;65443;51.436;5.978;2023-06-26T00:58:00;31.06;29.77;33.51;;
67298;Laerm;65443;51.436;5.978;2023-06-26T00:58:11;31.33;29.92;33.18;;
67298;Laerm;65443;51.436;5.978;2023-06-26T00:58:21;31.28;29.77;33.55;;
67298;Laerm;65443;51.436;5.978;2023-06-26T00:58:33;31.34;29.57;34.84;;
67298;Laerm;65443;51.436;5.978;2023-06-26T00:58:43;30.72;29.30;33.85;;
67298;Laerm;65443;51.436;5.978;2023-06-26T00:58:54;31.00;29.53;34.54;;
67298;Laerm;65443;51.436;5.978;2023-06-26T00:59:04;31.03;29.67;33.38;;
67298;Laerm;65443;51.436;5.978;2023-06-26T00:59:14;30.54;28.90;32.87;;
67298;Laerm;65443;51.436;5.978;2023-06-26T00:59:25;30.85;29.41;32.57;;